createdAt,value
2018-12-16T00:00:53.230Z,1007.30
2018-12-16T00:01:53.215Z,1007.34
2018-12-16T00:02:53.250Z,1007.37
2018-12-16T00:03:53.255Z,1007.35
2018-12-16T00:04:53.185Z,1007.41
2018-12-16T00:05:53.173Z,1007.43
2018-12-16T00:06:53.163Z,1007.43
2018-12-16T00:07:53.154Z,1007.45
2018-12-16T00:08:53.146Z,1007.57
2018-12-16T00:09:53.174Z,1007.64
2018-12-16T00:10:53.120Z,1007.63
2018-12-16T00:11:53.107Z,1007.61
2018-12-16T00:12:53.097Z,1007.59
2018-12-16T00:13:53.087Z,1007.70
2018-12-16T00:14:53.076Z,1007.74
2018-12-16T00:15:53.106Z,1007.68
2018-12-16T00:16:53.054Z,1007.79
2018-12-16T00:17:53.047Z,1007.86
2018-12-16T00:18:53.035Z,1007.80
2018-12-16T00:19:53.021Z,1007.78
2018-12-16T00:20:53.050Z,1007.86
2018-12-16T00:21:52.999Z,1007.84
2018-12-16T00:22:52.991Z,1007.83
2018-12-16T00:23:53.022Z,1007.90
2018-12-16T00:24:53.007Z,1007.84
2018-12-16T00:25:52.956Z,1007.83
2018-12-16T00:26:52.946Z,1007.87
2018-12-16T00:27:52.935Z,1007.88
2018-12-16T00:28:52.978Z,1007.81
2018-12-16T00:29:52.913Z,1007.84
2018-12-16T00:30:52.902Z,1007.72
2018-12-16T00:31:52.892Z,1007.74
2018-12-16T00:32:52.884Z,1007.78
2018-12-16T00:33:52.874Z,1007.76
2018-12-16T00:34:52.897Z,1007.76
2018-12-16T00:35:52.850Z,1007.74
2018-12-16T00:36:52.841Z,1007.78
2018-12-16T00:37:52.828Z,1007.67
2018-12-16T00:38:52.815Z,1007.53
2018-12-16T00:39:52.848Z,1007.61
2018-12-16T00:40:52.794Z,1007.55
2018-12-16T00:41:52.783Z,1007.52
2018-12-16T00:42:52.775Z,1007.50
2018-12-16T00:43:52.763Z,1007.44
2018-12-16T00:44:52.751Z,1007.36
2018-12-16T00:45:52.780Z,1007.30
2018-12-16T00:46:52.735Z,1007.37
2018-12-16T00:47:52.722Z,1007.38
2018-12-16T00:48:52.713Z,1007.33
2018-12-16T00:49:52.696Z,1007.35
2018-12-16T00:50:52.726Z,1007.33
2018-12-16T00:51:52.674Z,1007.32
2018-12-16T00:52:52.665Z,1007.21
2018-12-16T00:53:52.652Z,1007.20
2018-12-16T00:54:52.642Z,1007.24
2018-12-16T00:55:52.672Z,1007.21
2018-12-16T00:56:52.620Z,1007.21
2018-12-16T00:57:52.608Z,1007.24
2018-12-16T00:58:52.602Z,1007.24
2018-12-16T00:59:52.589Z,1007.19
2018-12-16T01:00:52.581Z,1007.09
2018-12-16T01:01:52.621Z,1007.03
2018-12-16T01:02:52.557Z,1007.09
2018-12-16T01:03:52.544Z,1007.02
2018-12-16T01:04:52.535Z,1006.99
2018-12-16T01:05:52.525Z,1006.91
2018-12-16T01:06:52.512Z,1006.89
2018-12-16T01:07:52.542Z,1006.86
2018-12-16T01:08:52.492Z,1006.73
2018-12-16T01:09:52.479Z,1006.73
2018-12-16T01:10:52.470Z,1006.71
2018-12-16T01:11:52.458Z,1006.58
2018-12-16T01:12:52.449Z,1006.76
2018-12-16T01:13:52.480Z,1006.69
2018-12-16T01:14:52.426Z,1006.60
2018-12-16T01:15:52.413Z,1006.75
2018-12-16T01:16:52.403Z,1006.65
2018-12-16T01:17:52.440Z,1006.63
2018-12-16T01:18:52.385Z,1006.63
2018-12-16T01:19:52.372Z,1006.55
2018-12-16T01:20:52.362Z,1006.58
2018-12-16T01:21:52.349Z,1006.52
2018-12-16T01:22:52.342Z,1006.51
2018-12-16T01:23:52.367Z,1006.56
2018-12-16T01:24:52.319Z,1006.54
2018-12-16T01:25:52.347Z,1006.51
2018-12-16T01:26:52.294Z,1006.45
2018-12-16T01:27:52.284Z,1006.47
2018-12-16T01:28:52.275Z,1006.47
2018-12-16T01:29:52.262Z,1006.34
2018-12-16T01:30:52.251Z,1006.39
2018-12-16T01:31:52.282Z,1006.40
2018-12-16T01:32:52.233Z,1006.33
2018-12-16T01:33:52.221Z,1006.36
2018-12-16T01:34:52.213Z,1006.31
2018-12-16T01:35:52.201Z,1006.27
2018-12-16T01:36:52.186Z,1006.41
2018-12-16T01:37:52.216Z,1006.46
2018-12-16T01:38:52.167Z,1006.44
2018-12-16T01:39:52.155Z,1006.33
2018-12-16T01:40:52.160Z,1006.28
2018-12-16T01:41:52.143Z,1006.35
2018-12-16T01:42:52.122Z,1006.23
2018-12-16T01:43:52.150Z,1006.17
2018-12-16T01:44:52.100Z,1006.22
2018-12-16T01:45:52.089Z,1006.20
2018-12-16T01:46:52.077Z,1006.22
2018-12-16T01:47:52.107Z,1006.17
2018-12-16T01:48:52.056Z,1006.16
2018-12-16T01:49:52.046Z,1006.18
2018-12-16T01:50:52.035Z,1006.03
2018-12-16T01:51:52.027Z,1006.14
2018-12-16T01:52:52.053Z,1006.13
2018-12-16T01:53:52.005Z,1006.17
2018-12-16T01:54:51.992Z,1006.08
2018-12-16T01:55:51.982Z,1006.15
2018-12-16T01:56:52.011Z,1005.93
2018-12-16T01:57:51.958Z,1006.11
2018-12-16T01:58:51.951Z,1006.11
2018-12-16T01:59:51.940Z,1006.10
2018-12-16T02:00:51.927Z,1006.05
2018-12-16T02:01:51.915Z,1006.08
2018-12-16T02:02:51.946Z,1005.95
2018-12-16T02:03:51.894Z,1005.87
2018-12-16T02:04:51.884Z,1005.93
2018-12-16T02:05:51.873Z,1006.02
2018-12-16T02:06:51.866Z,1005.99
2018-12-16T02:07:51.851Z,1005.95
2018-12-16T02:08:51.880Z,1005.90
2018-12-16T02:09:51.828Z,1005.85
2018-12-16T02:10:51.818Z,1005.94
2018-12-16T02:11:51.807Z,1005.85
2018-12-16T02:12:51.795Z,1005.88
2018-12-16T02:13:51.827Z,1005.84
2018-12-16T02:14:51.774Z,1005.81
2018-12-16T02:15:51.762Z,1005.80
2018-12-16T02:16:51.754Z,1005.75
2018-12-16T02:17:51.782Z,1005.76
2018-12-16T02:18:51.733Z,1005.71
2018-12-16T02:19:51.719Z,1005.76
2018-12-16T02:20:51.709Z,1005.68
2018-12-16T02:21:51.702Z,1005.68
2018-12-16T02:22:56.882Z,1005.63
2018-12-16T02:23:52.676Z,1005.61
2018-12-16T02:24:51.665Z,1005.53
2018-12-16T02:25:51.654Z,1005.51
2018-12-16T02:26:51.643Z,1005.45
2018-12-16T02:27:51.635Z,1005.42
2018-12-16T02:28:51.663Z,1005.36
2018-12-16T02:29:51.653Z,1005.32
2018-12-16T02:30:51.603Z,1005.35
2018-12-16T02:31:51.615Z,1005.44
2018-12-16T02:32:51.582Z,1005.47
2018-12-16T02:33:51.568Z,1005.41
2018-12-16T02:34:51.557Z,1005.35
2018-12-16T02:35:51.595Z,1005.49
2018-12-16T02:36:51.537Z,1005.45
2018-12-16T02:37:51.525Z,1005.47
2018-12-16T02:38:51.515Z,1005.49
2018-12-16T02:39:51.503Z,1005.45
2018-12-16T02:40:51.532Z,1005.45
2018-12-16T02:41:51.482Z,1005.50
2018-12-16T02:42:51.470Z,1005.40
2018-12-16T02:43:51.503Z,1005.35
2018-12-16T02:44:51.491Z,1005.26
2018-12-16T02:45:51.438Z,1005.36
2018-12-16T02:46:51.428Z,1005.25
2018-12-16T02:47:51.415Z,1005.26
2018-12-16T02:48:51.423Z,1005.30
2018-12-16T02:49:51.394Z,1005.24
2018-12-16T02:50:51.424Z,1005.18
2018-12-16T02:51:51.379Z,1005.19
2018-12-16T02:52:51.363Z,1005.23
2018-12-16T02:53:51.370Z,1005.23
2018-12-16T02:54:51.614Z,1005.17
2018-12-16T02:55:51.329Z,1005.24
2018-12-16T02:56:51.323Z,1005.18
2018-12-16T02:57:51.307Z,1005.22
2018-12-16T02:58:51.297Z,1005.18
2018-12-16T02:59:51.377Z,1005.23
2018-12-16T03:00:51.315Z,1005.13
2018-12-16T03:01:51.265Z,1005.12
2018-12-16T03:02:51.256Z,1005.18
2018-12-16T03:03:51.242Z,1005.16
2018-12-16T03:04:51.263Z,1005.15
2018-12-16T03:05:51.220Z,1005.06
2018-12-16T03:06:51.210Z,1005.11
2018-12-16T03:07:51.198Z,1005.13
2018-12-16T03:08:51.192Z,1005.11
2018-12-16T03:09:51.177Z,1005.04
2018-12-16T03:10:51.202Z,1005.05
2018-12-16T03:11:51.157Z,1005.02
2018-12-16T03:12:51.155Z,1005.01
2018-12-16T03:13:51.133Z,1005.04
2018-12-16T03:14:51.132Z,1004.99
2018-12-16T03:15:51.142Z,1005.01
2018-12-16T03:16:51.102Z,1005.02
2018-12-16T03:17:51.093Z,1004.94
2018-12-16T03:18:51.080Z,1004.94
2018-12-16T03:19:51.072Z,1004.93
2018-12-16T03:20:51.090Z,1004.89
2018-12-16T03:21:51.046Z,1004.75
2018-12-16T03:22:51.038Z,1004.79
2018-12-16T03:23:51.026Z,1004.69
2018-12-16T03:24:51.014Z,1004.72
2018-12-16T03:25:51.004Z,1004.74
2018-12-16T03:26:51.025Z,1004.73
2018-12-16T03:27:50.988Z,1004.69
2018-12-16T03:28:50.970Z,1004.71
2018-12-16T03:29:50.963Z,1004.67
2018-12-16T03:30:50.950Z,1004.65
2018-12-16T03:31:50.938Z,1004.59
2018-12-16T03:32:50.976Z,1004.56
2018-12-16T03:33:50.917Z,1004.56
2018-12-16T03:34:50.906Z,1004.54
2018-12-16T03:35:50.894Z,1004.53
2018-12-16T03:36:50.888Z,1004.48
2018-12-16T03:37:50.872Z,1004.44
2018-12-16T03:38:50.891Z,1004.44
2018-12-16T03:39:50.886Z,1004.37
2018-12-16T03:40:50.839Z,1004.40
2018-12-16T03:41:50.857Z,1004.35
2018-12-16T03:42:50.819Z,1004.43
2018-12-16T03:43:50.807Z,1004.44
2018-12-16T03:44:50.800Z,1004.47
2018-12-16T03:45:50.821Z,1004.51
2018-12-16T03:46:50.777Z,1004.57
2018-12-16T03:47:50.765Z,1004.52
2018-12-16T03:48:50.758Z,1004.45
2018-12-16T03:49:50.774Z,1004.45
2018-12-16T03:50:50.763Z,1004.42
2018-12-16T03:51:50.752Z,1004.35
2018-12-16T03:52:50.710Z,1004.47
2018-12-16T03:53:50.700Z,1004.38
2018-12-16T03:54:50.687Z,1004.45
2018-12-16T03:55:50.676Z,1004.45
2018-12-16T03:56:50.710Z,1004.47
2018-12-16T03:57:50.654Z,1004.48
2018-12-16T03:58:50.643Z,1004.47
2018-12-16T03:59:50.633Z,1004.47
2018-12-16T04:00:50.633Z,1004.45
2018-12-16T04:01:50.616Z,1004.35
2018-12-16T04:02:50.643Z,1004.37
2018-12-16T04:03:50.589Z,1004.44
2018-12-16T04:04:50.584Z,1004.38
2018-12-16T04:05:50.567Z,1004.36
2018-12-16T04:06:50.558Z,1004.41
2018-12-16T04:07:50.547Z,1004.37
2018-12-16T04:08:50.564Z,1004.47
2018-12-16T04:09:50.555Z,1004.46
2018-12-16T04:10:50.513Z,1004.42
2018-12-16T04:11:50.510Z,1004.41
2018-12-16T04:12:50.497Z,1004.43
2018-12-16T04:13:50.481Z,1004.45
2018-12-16T04:14:50.508Z,1004.42
2018-12-16T04:15:50.459Z,1004.40
2018-12-16T04:16:50.447Z,1004.38
2018-12-16T04:17:50.438Z,1004.35
2018-12-16T04:18:50.428Z,1004.37
2018-12-16T04:19:50.414Z,1004.31
2018-12-16T04:20:50.434Z,1004.28
2018-12-16T04:21:50.394Z,1004.31
2018-12-16T04:22:50.382Z,1004.33
2018-12-16T04:23:50.372Z,1004.28
2018-12-16T04:24:50.361Z,1004.32
2018-12-16T04:25:50.384Z,1004.33
2018-12-16T04:26:50.341Z,1004.31
2018-12-16T04:27:50.329Z,1004.28
2018-12-16T04:28:50.317Z,1004.30
2018-12-16T04:29:50.306Z,1004.29
2018-12-16T04:30:50.298Z,1004.31
2018-12-16T04:31:50.314Z,1004.36
2018-12-16T04:32:50.278Z,1004.31
2018-12-16T04:33:50.327Z,1004.33
2018-12-16T04:34:50.252Z,1004.34
2018-12-16T04:35:50.241Z,1004.38
2018-12-16T04:36:50.259Z,1004.38
2018-12-16T04:37:50.221Z,1004.31
2018-12-16T04:38:50.240Z,1004.37
2018-12-16T04:39:50.209Z,1004.37
2018-12-16T04:40:50.188Z,1004.39
2018-12-16T04:41:50.176Z,1004.34
2018-12-16T04:42:50.164Z,1004.39
2018-12-16T04:43:50.155Z,1004.31
2018-12-16T04:44:50.177Z,1004.28
2018-12-16T04:45:50.134Z,1004.32
2018-12-16T04:46:50.125Z,1004.25
2018-12-16T04:47:50.112Z,1004.30
2018-12-16T04:48:50.101Z,1004.34
2018-12-16T04:49:50.123Z,1004.33
2018-12-16T04:50:50.086Z,1004.31
2018-12-16T04:51:50.068Z,1004.39
2018-12-16T04:52:50.091Z,1004.37
2018-12-16T04:53:50.047Z,1004.48
2018-12-16T04:54:50.054Z,1004.49
2018-12-16T04:55:50.025Z,1004.49
2018-12-16T04:56:50.016Z,1004.45
2018-12-16T04:57:50.003Z,1004.53
2018-12-16T04:58:50.026Z,1004.43
2018-12-16T04:59:49.985Z,1004.49
2018-12-16T05:00:49.971Z,1004.60
2018-12-16T05:01:49.973Z,1004.57
2018-12-16T05:02:49.948Z,1004.66
2018-12-16T05:03:49.939Z,1004.73
2018-12-16T05:04:49.961Z,1004.71
2018-12-16T05:05:49.916Z,1004.64
2018-12-16T05:06:49.906Z,1004.55
2018-12-16T05:07:49.903Z,1004.53
2018-12-16T05:08:49.891Z,1004.49
2018-12-16T05:09:49.873Z,1004.39
2018-12-16T05:10:49.898Z,1004.34
2018-12-16T05:11:49.855Z,1004.47
2018-12-16T05:12:49.840Z,1004.41
2018-12-16T05:13:49.831Z,1004.48
2018-12-16T05:14:49.820Z,1004.33
2018-12-16T05:15:49.807Z,1004.32
2018-12-16T05:16:49.829Z,1004.34
2018-12-16T05:17:49.788Z,1004.30
2018-12-16T05:18:49.777Z,1004.22
2018-12-16T05:19:49.797Z,1004.22
2018-12-16T05:20:49.754Z,1004.11
2018-12-16T05:21:49.757Z,1004.14
2018-12-16T05:22:49.763Z,1004.02
2018-12-16T05:23:49.721Z,1003.92
2018-12-16T05:24:49.744Z,1003.86
2018-12-16T05:25:49.710Z,1003.82
2018-12-16T05:26:49.692Z,1003.91
2018-12-16T05:27:49.679Z,1003.97
2018-12-16T05:28:49.667Z,1003.98
2018-12-16T05:29:49.659Z,1004.11
2018-12-16T05:30:49.678Z,1004.06
2018-12-16T05:31:49.665Z,1004.04
2018-12-16T05:32:49.626Z,1003.99
2018-12-16T05:33:49.614Z,1004.06
2018-12-16T05:34:49.603Z,1004.06
2018-12-16T05:35:49.593Z,1004.13
2018-12-16T05:36:49.583Z,1004.20
2018-12-16T05:37:49.599Z,1004.31
2018-12-16T05:38:49.787Z,1004.34
2018-12-16T05:39:49.548Z,1004.15
2018-12-16T05:40:49.566Z,1004.22
2018-12-16T05:41:49.527Z,1004.15
2018-12-16T05:42:49.517Z,1004.06
2018-12-16T05:43:49.506Z,1004.13
2018-12-16T05:44:49.523Z,1004.12
2018-12-16T05:45:49.483Z,1004.17
2018-12-16T05:46:49.499Z,1004.30
2018-12-16T05:47:49.460Z,1004.30
2018-12-16T05:48:49.456Z,1004.32
2018-12-16T05:49:49.443Z,1004.33
2018-12-16T05:50:49.427Z,1004.16
2018-12-16T05:51:49.446Z,1004.21
2018-12-16T05:52:49.406Z,1004.23
2018-12-16T05:53:49.397Z,1004.18
2018-12-16T05:54:49.384Z,1004.25
2018-12-16T05:55:49.374Z,1004.16
2018-12-16T05:56:49.393Z,1004.19
2018-12-16T05:57:49.351Z,1004.21
2018-12-16T05:58:49.344Z,1004.13
2018-12-16T05:59:49.330Z,1004.33
2018-12-16T06:00:49.318Z,1004.31
2018-12-16T06:01:49.312Z,1004.24
2018-12-16T06:02:49.339Z,1004.18
2018-12-16T06:03:49.289Z,1004.25
2018-12-16T06:04:49.311Z,1004.27
2018-12-16T06:05:49.268Z,1004.25
2018-12-16T06:06:49.256Z,1004.22
2018-12-16T06:07:49.242Z,1004.15
2018-12-16T06:08:49.231Z,1004.13
2018-12-16T06:09:49.264Z,1004.13
2018-12-16T06:10:49.220Z,1004.16
2018-12-16T06:11:49.197Z,1004.02
2018-12-16T06:12:49.191Z,1004.10
2018-12-16T06:13:49.179Z,1004.10
2018-12-16T06:14:49.173Z,1004.05
2018-12-16T06:15:49.183Z,1004.07
2018-12-16T06:16:49.144Z,1004.08
2018-12-16T06:17:49.143Z,1004.08
2018-12-16T06:18:49.121Z,1004.12
2018-12-16T06:19:49.143Z,1004.04
2018-12-16T06:20:49.100Z,1004.06
2018-12-16T06:21:49.119Z,1003.98
2018-12-16T06:22:49.083Z,1003.97
2018-12-16T06:23:55.372Z,1004.02
2018-12-16T06:24:50.086Z,1003.91
2018-12-16T06:25:49.045Z,1003.94
2018-12-16T06:26:49.035Z,1003.89
2018-12-16T06:27:49.023Z,1003.89
2018-12-16T06:28:49.018Z,1003.98
2018-12-16T06:29:49.015Z,1004.04
2018-12-16T06:30:49.021Z,1004.06
2018-12-16T06:31:48.989Z,1004.08
2018-12-16T06:32:48.969Z,1004.03
2018-12-16T06:33:48.961Z,1004.05
2018-12-16T06:34:48.948Z,1003.95
2018-12-16T06:35:48.935Z,1003.96
2018-12-16T06:36:48.955Z,1003.94
2018-12-16T06:37:48.916Z,1003.99
2018-12-16T06:38:48.912Z,1004.00
2018-12-16T06:39:48.911Z,1003.97
2018-12-16T06:40:48.883Z,1004.01
2018-12-16T06:41:48.911Z,1004.01
2018-12-16T06:42:48.859Z,1004.06
2018-12-16T06:43:48.853Z,1004.02
2018-12-16T06:44:48.839Z,1003.99
2018-12-16T06:45:48.840Z,1004.05
2018-12-16T06:46:48.815Z,1004.02
2018-12-16T06:47:48.837Z,1004.00
2018-12-16T06:48:48.793Z,1004.01
2018-12-16T06:49:48.784Z,1004.12
2018-12-16T06:50:48.775Z,1004.07
2018-12-16T06:51:48.777Z,1004.03
2018-12-16T06:52:48.752Z,1004.05
2018-12-16T06:53:48.777Z,1003.98
2018-12-16T06:54:48.729Z,1004.00
2018-12-16T06:55:48.722Z,1003.96
2018-12-16T06:56:48.706Z,1003.97
2018-12-16T06:57:48.697Z,1004.02
2018-12-16T06:58:48.686Z,1004.02
2018-12-16T06:59:48.705Z,1003.97
2018-12-16T07:00:48.674Z,1003.98
2018-12-16T07:01:48.681Z,1003.91
2018-12-16T07:02:48.677Z,1003.97
2018-12-16T07:03:48.633Z,1003.97
2018-12-16T07:04:48.657Z,1004.01
2018-12-16T07:05:48.609Z,1004.01
2018-12-16T07:06:48.599Z,1004.07
2018-12-16T07:07:48.586Z,1004.04
2018-12-16T07:08:48.579Z,1004.01
2018-12-16T07:09:48.567Z,1004.04
2018-12-16T07:10:48.661Z,1004.06
2018-12-16T07:11:48.681Z,1004.10
2018-12-16T07:12:48.578Z,1004.12
2018-12-16T07:13:48.526Z,1004.10
2018-12-16T07:14:48.549Z,1004.12
2018-12-16T07:15:48.499Z,1004.13
2018-12-16T07:16:48.487Z,1004.17
2018-12-16T07:17:48.478Z,1004.15
2018-12-16T07:18:48.499Z,1004.07
2018-12-16T07:19:48.455Z,1004.12
2018-12-16T07:20:48.456Z,1004.13
2018-12-16T07:21:48.438Z,1004.14
2018-12-16T07:22:48.426Z,1004.13
2018-12-16T07:23:48.413Z,1004.06
2018-12-16T07:24:48.472Z,1004.16
2018-12-16T07:25:48.426Z,1004.08
2018-12-16T07:26:48.377Z,1004.06
2018-12-16T07:27:48.381Z,1004.04
2018-12-16T07:28:48.369Z,1004.08
2018-12-16T07:29:48.349Z,1004.05
2018-12-16T07:30:48.373Z,1004.04
2018-12-16T07:31:48.323Z,1004.05
2018-12-16T07:32:48.322Z,1004.07
2018-12-16T07:33:48.303Z,1004.02
2018-12-16T07:34:48.292Z,1004.06
2018-12-16T07:35:48.281Z,1004.10
2018-12-16T07:36:48.338Z,1004.08
2018-12-16T07:37:48.260Z,1004.10
2018-12-16T07:38:48.248Z,1004.10
2018-12-16T07:39:48.264Z,1004.02
2018-12-16T07:40:48.270Z,1004.13
2018-12-16T07:41:48.238Z,1004.10
2018-12-16T07:42:48.251Z,1004.03
2018-12-16T07:43:48.218Z,1004.09
2018-12-16T07:44:48.185Z,1004.10
2018-12-16T07:45:48.174Z,1004.08
2018-12-16T07:46:48.184Z,1004.06
2018-12-16T07:47:48.185Z,1004.09
2018-12-16T07:48:48.172Z,1004.16
2018-12-16T07:49:48.133Z,1004.16
2018-12-16T07:50:48.126Z,1004.16
2018-12-16T07:51:48.108Z,1004.18
2018-12-16T07:52:48.096Z,1004.19
2018-12-16T07:53:48.090Z,1004.25
2018-12-16T07:54:48.104Z,1004.20
2018-12-16T07:55:48.066Z,1004.24
2018-12-16T07:56:48.054Z,1004.23
2018-12-16T07:57:48.042Z,1004.22
2018-12-16T07:58:48.032Z,1004.20
2018-12-16T07:59:48.019Z,1004.25
2018-12-16T08:00:48.036Z,1004.22
2018-12-16T08:01:47.997Z,1004.20
2018-12-16T08:02:47.985Z,1004.15
2018-12-16T08:03:47.980Z,1004.29
2018-12-16T08:04:47.965Z,1004.29
2018-12-16T08:05:48.220Z,1004.28
2018-12-16T08:06:47.946Z,1004.25
2018-12-16T08:07:47.933Z,1004.33
2018-12-16T08:08:47.921Z,1004.37
2018-12-16T08:09:47.911Z,1004.39
2018-12-16T08:10:47.899Z,1004.49
2018-12-16T08:11:47.923Z,1004.42
2018-12-16T08:12:47.883Z,1004.37
2018-12-16T08:13:47.867Z,1004.45
2018-12-16T08:14:47.854Z,1004.50
2018-12-16T08:15:47.845Z,1004.49
2018-12-16T08:16:47.832Z,1004.45
2018-12-16T08:17:47.853Z,1004.54
2018-12-16T08:18:47.809Z,1004.54
2018-12-16T08:19:47.803Z,1004.46
2018-12-16T08:20:47.789Z,1004.51
2018-12-16T08:21:47.778Z,1004.33
2018-12-16T08:22:47.807Z,1004.49
2018-12-16T08:23:47.788Z,1004.46
2018-12-16T08:24:47.747Z,1004.49
2018-12-16T08:25:47.736Z,1004.49
2018-12-16T08:26:47.761Z,1004.49
2018-12-16T08:27:47.712Z,1004.49
2018-12-16T08:28:47.703Z,1004.46
2018-12-16T08:29:47.722Z,1004.52
2018-12-16T08:30:47.680Z,1004.52
2018-12-16T08:31:47.670Z,1004.53
2018-12-16T08:32:47.666Z,1004.45
2018-12-16T08:33:47.648Z,1004.52
2018-12-16T08:34:47.667Z,1004.43
2018-12-16T08:35:47.627Z,1004.49
2018-12-16T08:36:47.615Z,1004.53
2018-12-16T08:37:47.614Z,1004.55
2018-12-16T08:38:47.639Z,1004.51
2018-12-16T08:39:47.584Z,1004.56
2018-12-16T08:40:47.574Z,1004.59
2018-12-16T08:41:47.564Z,1004.51
2018-12-16T08:42:47.552Z,1004.54
2018-12-16T08:43:47.537Z,1004.56
2018-12-16T08:44:47.567Z,1004.54
2018-12-16T08:45:47.517Z,1004.48
2018-12-16T08:46:47.517Z,1004.50
2018-12-16T08:47:47.529Z,1004.55
2018-12-16T08:48:47.556Z,1004.52
2018-12-16T08:49:47.473Z,1004.53
2018-12-16T08:50:47.502Z,1004.59
2018-12-16T08:51:47.456Z,1004.55
2018-12-16T08:52:47.439Z,1004.60
2018-12-16T08:53:47.428Z,1004.48
2018-12-16T08:54:47.424Z,1004.52
2018-12-16T08:55:47.413Z,1004.57
2018-12-16T08:56:47.438Z,1004.48
2018-12-16T08:57:47.428Z,1004.49
2018-12-16T08:58:47.431Z,1004.56
2018-12-16T08:59:47.366Z,1004.56
2018-12-16T09:00:47.353Z,1004.50
2018-12-16T09:01:47.346Z,1004.54
2018-12-16T09:02:47.330Z,1004.55
2018-12-16T09:03:47.321Z,1004.55
2018-12-16T09:04:47.344Z,1004.58
2018-12-16T09:05:47.303Z,1004.57
2018-12-16T09:06:47.287Z,1004.54
2018-12-16T09:07:47.277Z,1004.57
2018-12-16T09:08:47.268Z,1004.56
2018-12-16T09:09:47.253Z,1004.58
2018-12-16T09:10:47.279Z,1004.58
2018-12-16T09:11:47.263Z,1004.58
2018-12-16T09:12:47.224Z,1004.58
2018-12-16T09:13:47.214Z,1004.57
2018-12-16T09:14:47.233Z,1004.55
2018-12-16T09:15:47.197Z,1004.50
2018-12-16T09:16:47.193Z,1004.57
2018-12-16T09:17:47.167Z,1004.58
2018-12-16T09:18:47.162Z,1004.54
2018-12-16T09:19:47.177Z,1004.49
2018-12-16T09:20:47.168Z,1004.54
2018-12-16T09:21:47.127Z,1004.58
2018-12-16T09:22:47.119Z,1004.55
2018-12-16T09:23:47.104Z,1004.49
2018-12-16T09:24:47.095Z,1004.53
2018-12-16T09:25:47.081Z,1004.56
2018-12-16T09:26:47.099Z,1004.59
2018-12-16T09:27:47.093Z,1004.61
2018-12-16T09:28:47.048Z,1004.61
2018-12-16T09:29:47.040Z,1004.66
2018-12-16T09:30:47.287Z,1004.67
2018-12-16T09:31:47.022Z,1004.62
2018-12-16T09:32:47.005Z,1004.64
2018-12-16T09:33:46.995Z,1004.70
2018-12-16T09:34:46.982Z,1004.62
2018-12-16T09:35:46.973Z,1004.72
2018-12-16T09:36:47.005Z,1004.66
2018-12-16T09:37:46.952Z,1004.70
2018-12-16T09:38:46.941Z,1004.68
2018-12-16T09:39:46.926Z,1004.64
2018-12-16T09:40:46.965Z,1004.69
2018-12-16T09:41:46.907Z,1004.68
2018-12-16T09:42:46.949Z,1004.67
2018-12-16T09:43:46.888Z,1004.66
2018-12-16T09:44:46.880Z,1004.69
2018-12-16T09:45:49.536Z,1004.69
2018-12-16T09:46:46.855Z,1004.69
2018-12-16T09:47:46.852Z,1004.70
2018-12-16T09:48:46.889Z,1004.68
2018-12-16T09:49:46.822Z,1004.63
2018-12-16T09:50:46.819Z,1004.60
2018-12-16T09:51:46.802Z,1004.57
2018-12-16T09:52:46.792Z,1004.54
2018-12-16T09:53:46.841Z,1004.47
2018-12-16T09:54:46.770Z,1004.58
2018-12-16T09:55:46.756Z,1004.57
2018-12-16T09:56:46.743Z,1004.55
2018-12-16T09:57:46.738Z,1004.54
2018-12-16T09:58:46.729Z,1004.54
2018-12-16T09:59:46.785Z,1004.59
2018-12-16T10:00:46.701Z,1004.60
2018-12-16T10:01:46.690Z,1004.57
2018-12-16T10:02:46.685Z,1004.53
2018-12-16T10:03:46.672Z,1004.61
2018-12-16T10:04:46.661Z,1004.59
2018-12-16T10:05:46.691Z,1004.60
2018-12-16T10:06:46.635Z,1004.63
2018-12-16T10:07:46.626Z,1004.64
2018-12-16T10:08:46.615Z,1004.65
2018-12-16T10:09:46.605Z,1004.65
2018-12-16T10:10:46.591Z,1004.66
2018-12-16T10:11:46.636Z,1004.70
2018-12-16T10:12:46.572Z,1004.64
2018-12-16T10:13:46.617Z,1004.65
2018-12-16T10:14:46.556Z,1004.66
2018-12-16T10:15:46.595Z,1004.62
2018-12-16T10:16:46.528Z,1004.61
2018-12-16T10:17:46.517Z,1004.58
2018-12-16T10:18:46.508Z,1004.54
2018-12-16T10:19:46.494Z,1004.54
2018-12-16T10:20:46.483Z,1004.56
2018-12-16T10:21:46.515Z,1004.60
2018-12-16T10:22:46.463Z,1004.57
2018-12-16T10:23:46.449Z,1004.57
2018-12-16T10:24:51.190Z,1004.53
2018-12-16T10:25:47.492Z,1004.53
2018-12-16T10:26:46.419Z,1004.48
2018-12-16T10:27:46.408Z,1004.50
2018-12-16T10:28:46.454Z,1004.54
2018-12-16T10:29:46.388Z,1004.54
2018-12-16T10:30:46.376Z,1004.52
2018-12-16T10:31:46.398Z,1004.43
2018-12-16T10:32:46.354Z,1004.40
2018-12-16T10:33:46.375Z,1004.41
2018-12-16T10:34:46.331Z,1004.45
2018-12-16T10:35:46.320Z,1004.38
2018-12-16T10:36:46.310Z,1004.40
2018-12-16T10:37:46.300Z,1004.43
2018-12-16T10:38:46.345Z,1004.47
2018-12-16T10:39:46.334Z,1004.45
2018-12-16T10:40:46.267Z,1004.44
2018-12-16T10:41:46.259Z,1004.49
2018-12-16T10:42:46.250Z,1004.52
2018-12-16T10:43:46.278Z,1004.55
2018-12-16T10:44:46.228Z,1004.53
2018-12-16T10:45:46.210Z,1004.57
2018-12-16T10:46:46.203Z,1004.52
2018-12-16T10:47:46.194Z,1004.55
2018-12-16T10:48:46.204Z,1004.52
2018-12-16T10:49:46.223Z,1004.48
2018-12-16T10:50:46.157Z,1004.52
2018-12-16T10:51:46.148Z,1004.53
2018-12-16T10:52:46.135Z,1004.53
2018-12-16T10:53:46.124Z,1004.53
2018-12-16T10:54:46.114Z,1004.55
2018-12-16T10:55:46.146Z,1004.56
2018-12-16T10:56:46.093Z,1004.50
2018-12-16T10:57:46.113Z,1004.51
2018-12-16T10:58:46.072Z,1004.57
2018-12-16T10:59:46.059Z,1004.61
2018-12-16T11:00:46.052Z,1004.57
2018-12-16T11:01:46.079Z,1004.55
2018-12-16T11:02:46.029Z,1004.51
2018-12-16T11:03:46.017Z,1004.54
2018-12-16T11:04:46.004Z,1004.51
2018-12-16T11:05:46.051Z,1004.49
2018-12-16T11:06:45.984Z,1004.45
2018-12-16T11:07:46.041Z,1004.48
2018-12-16T11:08:45.969Z,1004.51
2018-12-16T11:09:45.953Z,1004.52
2018-12-16T11:10:45.993Z,1004.53
2018-12-16T11:11:45.929Z,1004.47
2018-12-16T11:12:45.975Z,1004.49
2018-12-16T11:13:45.908Z,1004.46
2018-12-16T11:14:45.913Z,1004.46
2018-12-16T11:15:45.887Z,1004.45
2018-12-16T11:16:45.875Z,1004.42
2018-12-16T11:17:45.921Z,1004.48
2018-12-16T11:18:45.856Z,1004.42
2018-12-16T11:19:45.848Z,1004.41
2018-12-16T11:20:45.835Z,1004.42
2018-12-16T11:21:45.853Z,1004.39
2018-12-16T11:22:45.812Z,1004.41
2018-12-16T11:23:45.799Z,1004.47
2018-12-16T11:24:46.083Z,1004.42
2018-12-16T11:25:45.778Z,1004.46
2018-12-16T11:26:45.767Z,1004.43
2018-12-16T11:27:45.755Z,1004.43
2018-12-16T11:28:45.762Z,1004.43
2018-12-16T11:29:45.734Z,1004.38
2018-12-16T11:30:45.784Z,1004.39
2018-12-16T11:31:45.711Z,1004.33
2018-12-16T11:32:45.701Z,1004.45
2018-12-16T11:33:45.694Z,1004.41
2018-12-16T11:34:45.736Z,1004.36
2018-12-16T11:35:45.668Z,1004.33
2018-12-16T11:36:45.664Z,1004.33
2018-12-16T11:37:45.647Z,1004.38
2018-12-16T11:38:45.641Z,1004.41
2018-12-16T11:39:45.688Z,1004.45
2018-12-16T11:40:45.616Z,1004.44
2018-12-16T11:41:45.605Z,1004.57
2018-12-16T11:42:45.594Z,1004.49
2018-12-16T11:43:45.583Z,1004.52
2018-12-16T11:44:45.575Z,1004.42
2018-12-16T11:45:45.615Z,1004.33
2018-12-16T11:46:45.608Z,1004.36
2018-12-16T11:47:45.539Z,1004.31
2018-12-16T11:48:45.529Z,1004.30
2018-12-16T11:49:45.516Z,1004.33
2018-12-16T11:50:45.560Z,1004.26
2018-12-16T11:51:45.496Z,1004.28
2018-12-16T11:52:45.485Z,1004.26
2018-12-16T11:53:45.470Z,1004.19
2018-12-16T11:54:45.463Z,1004.20
2018-12-16T11:55:45.505Z,1004.13
2018-12-16T11:56:45.440Z,1004.12
2018-12-16T11:57:45.441Z,1004.15
2018-12-16T11:58:45.423Z,1004.14
2018-12-16T11:59:45.465Z,1004.14
2018-12-16T12:00:45.396Z,1004.03
2018-12-16T12:01:45.390Z,1004.05
2018-12-16T12:02:45.374Z,1004.09
2018-12-16T12:03:45.366Z,1004.01
2018-12-16T12:04:45.360Z,1004.07
2018-12-16T12:05:45.396Z,1004.05